createdAt,value
2019-02-19T00:03:04.667Z,7.56
2019-02-19T00:08:23.285Z,7.63
2019-02-19T00:13:42.143Z,7.65
2019-02-19T00:19:00.770Z,7.55
2019-02-19T00:24:19.327Z,7.72
2019-02-19T00:29:37.956Z,7.74
2019-02-19T00:34:56.524Z,7.70
2019-02-19T00:40:15.145Z,7.62
2019-02-19T00:45:33.761Z,7.64
2019-02-19T00:50:52.375Z,7.46
2019-02-19T00:56:11.124Z,7.78
2019-02-19T01:01:29.755Z,7.76
2019-02-19T01:06:48.390Z,7.57
2019-02-19T01:12:07.017Z,7.35
2019-02-19T01:17:25.655Z,7.31
2019-02-19T01:22:44.190Z,7.38
2019-02-19T01:28:02.820Z,7.31
2019-02-19T01:33:21.483Z,7.26
2019-02-19T01:38:40.128Z,7.32
2019-02-19T01:43:58.695Z,7.32
2019-02-19T01:49:17.310Z,7.35
2019-02-19T01:54:37.078Z,7.29
2019-02-19T01:59:55.672Z,7.17
2019-02-19T02:05:14.248Z,6.96
2019-02-19T02:10:32.803Z,7.06
2019-02-19T02:15:51.423Z,7.06
2019-02-19T02:21:10.049Z,7.17
2019-02-19T02:26:28.718Z,7.48
2019-02-19T02:31:47.351Z,7.39
2019-02-19T02:37:05.994Z,7.47
2019-02-19T02:42:24.463Z,7.53
2019-02-19T02:47:43.098Z,7.54
2019-02-19T02:53:01.668Z,7.55
2019-02-19T02:58:20.295Z,7.56
2019-02-19T03:03:38.834Z,7.50
2019-02-19T03:08:57.368Z,7.44
2019-02-19T03:14:16.012Z,7.42
2019-02-19T03:19:34.653Z,7.40
2019-02-19T03:24:53.294Z,7.34
2019-02-19T03:30:11.918Z,7.34
2019-02-19T03:35:30.559Z,7.29
2019-02-19T03:40:49.043Z,7.29
2019-02-19T03:46:12.180Z,7.29
2019-02-19T03:51:27.981Z,7.23
2019-02-19T03:56:46.595Z,7.16
2019-02-19T04:02:05.207Z,7.10
2019-02-19T04:07:23.829Z,7.01
2019-02-19T04:12:42.816Z,6.93
2019-02-19T04:18:01.735Z,6.84
2019-02-19T04:23:20.383Z,6.72
2019-02-19T04:28:39.076Z,6.61
2019-02-19T04:33:57.634Z,6.52
2019-02-19T04:39:16.262Z,6.44
2019-02-19T04:44:34.887Z,6.33
2019-02-19T04:49:53.509Z,6.31
2019-02-19T04:55:12.151Z,6.26
2019-02-19T05:00:30.725Z,6.29
2019-02-19T05:05:49.409Z,6.30
2019-02-19T05:11:08.043Z,6.32
2019-02-19T05:16:26.699Z,6.30
2019-02-19T05:21:45.251Z,6.37
2019-02-19T05:27:03.881Z,6.38
2019-02-19T05:32:22.523Z,6.43
2019-02-19T05:37:41.181Z,6.44
2019-02-19T05:43:01.502Z,6.40
2019-02-19T05:48:20.039Z,6.47
2019-02-19T05:53:38.558Z,6.48
2019-02-19T05:58:57.184Z,6.44
2019-02-19T06:04:16.091Z,6.44
2019-02-19T06:09:34.597Z,6.41
2019-02-19T06:14:53.211Z,6.34
2019-02-19T06:20:11.941Z,6.38
2019-02-19T06:25:32.379Z,6.40
2019-02-19T06:30:50.999Z,6.36
2019-02-19T06:36:12.610Z,6.28
2019-02-19T06:41:31.270Z,6.26
2019-02-19T06:46:49.830Z,6.23
2019-02-19T06:52:08.401Z,6.29
2019-02-19T06:57:26.985Z,6.35
2019-02-19T07:02:50.204Z,6.37
2019-02-19T07:08:08.827Z,6.43
2019-02-19T07:13:27.467Z,6.47
2019-02-19T07:18:46.034Z,6.53
2019-02-19T07:24:04.834Z,6.60
2019-02-19T07:29:23.470Z,6.62
2019-02-19T07:34:42.077Z,6.62
2019-02-19T07:40:00.720Z,6.59
2019-02-19T07:45:19.377Z,6.55
2019-02-19T07:50:37.819Z,6.57
2019-02-19T07:55:56.372Z,6.57
2019-02-19T08:01:14.967Z,6.60
2019-02-19T08:06:33.577Z,6.67
2019-02-19T08:11:52.193Z,6.74
2019-02-19T08:17:10.816Z,6.68
2019-02-19T08:22:29.349Z,6.59
2019-02-19T08:27:48.266Z,6.49
2019-02-19T08:33:06.885Z,6.40
2019-02-19T08:38:25.518Z,6.35
2019-02-19T08:43:44.136Z,6.33
2019-02-19T08:49:02.683Z,6.57
2019-02-19T08:54:21.307Z,7.27
2019-02-19T08:59:39.854Z,7.02
2019-02-19T09:04:58.406Z,7.69
2019-02-19T09:10:17.286Z,8.40
2019-02-19T09:15:35.828Z,8.56
2019-02-19T09:20:54.386Z,8.84
2019-02-19T09:26:12.971Z,7.99
2019-02-19T09:31:31.608Z,8.31
2019-02-19T09:36:50.229Z,8.49
2019-02-19T09:42:08.731Z,7.96
2019-02-19T09:47:27.284Z,8.47
2019-02-19T09:52:45.925Z,8.72
2019-02-19T09:58:04.533Z,8.76
2019-02-19T10:03:23.598Z,9.01
2019-02-19T10:08:42.153Z,9.54
2019-02-19T10:14:00.688Z,8.78
2019-02-19T10:19:19.318Z,8.68
2019-02-19T10:24:37.928Z,9.27
2019-02-19T10:29:56.786Z,9.45
2019-02-19T10:35:15.260Z,9.94
2019-02-19T10:40:33.733Z,9.80
2019-02-19T10:45:52.350Z,9.33
2019-02-19T10:51:11.629Z,9.28
2019-02-19T10:56:30.220Z,9.52
2019-02-19T11:01:48.973Z,9.78
2019-02-19T11:07:07.522Z,9.53
2019-02-19T11:12:26.069Z,9.62
2019-02-19T11:17:44.705Z,10.33
2019-02-19T11:23:03.324Z,10.06
2019-02-19T11:28:22.030Z,9.71
2019-02-19T11:33:40.609Z,10.07
2019-02-19T11:38:59.165Z,10.71
2019-02-19T11:44:17.907Z,10.17
2019-02-19T11:49:36.478Z,10.56
2019-02-19T11:54:55.027Z,10.25
2019-02-19T12:00:20.146Z,10.14
2019-02-19T12:05:38.759Z,9.95
2019-02-19T12:10:57.917Z,10.18
2019-02-19T12:16:16.549Z,10.08
2019-02-19T12:21:35.182Z,10.18
2019-02-19T12:26:53.733Z,10.01
2019-02-19T12:32:12.361Z,9.88
2019-02-19T12:37:30.962Z,9.89
2019-02-19T12:42:49.584Z,10.23
2019-02-19T12:48:08.201Z,10.05
2019-02-19T12:53:26.752Z,9.91
2019-02-19T12:58:45.319Z,9.94
2019-02-19T13:04:03.859Z,9.76
2019-02-19T13:09:22.411Z,9.80
2019-02-19T13:14:41.258Z,10.13
2019-02-19T13:19:59.890Z,10.26
2019-02-19T13:25:18.512Z,9.82
2019-02-19T13:30:37.063Z,9.82
2019-02-19T13:35:58.342Z,9.91
2019-02-19T13:41:17.087Z,10.00
2019-02-19T13:46:36.036Z,10.19
2019-02-19T13:51:56.219Z,10.23
2019-02-19T13:57:14.923Z,9.78
2019-02-19T14:02:33.479Z,9.95
2019-02-19T14:07:52.164Z,9.85
2019-02-19T14:13:10.803Z,9.58
2019-02-19T14:18:48.423Z,9.74
2019-02-19T14:24:26.731Z,9.86
2019-02-19T14:29:49.822Z,9.90
2019-02-19T14:35:28.839Z,9.66
2019-02-19T14:41:05.249Z,9.45
2019-02-19T14:46:25.646Z,9.57
2019-02-19T14:51:55.547Z,9.56
2019-02-19T14:57:28.069Z,10.13
2019-02-19T15:03:04.312Z,10.25
2019-02-19T15:08:36.766Z,10.12
2019-02-19T15:14:02.700Z,9.98
2019-02-19T15:19:39.253Z,9.91
2019-02-19T15:24:59.704Z,9.74
2019-02-19T15:30:28.743Z,9.68
2019-02-19T15:36:04.055Z,9.44
2019-02-19T15:41:39.797Z,9.44
2019-02-19T15:47:16.073Z,9.55
2019-02-19T15:52:38.950Z,9.51
2019-02-19T15:58:05.070Z,9.47
2019-02-19T16:03:29.850Z,9.42
2019-02-19T16:08:58.384Z,9.27
2019-02-19T16:14:35.096Z,9.15
2019-02-19T16:20:00.511Z,9.01
2019-02-19T16:25:39.468Z,8.89
2019-02-19T16:31:08.201Z,8.77
2019-02-19T16:36:40.644Z,8.52
2019-02-19T16:42:06.701Z,8.37
2019-02-19T16:47:41.952Z,8.39
2019-02-19T16:53:02.222Z,8.23
2019-02-19T16:58:28.359Z,8.12
2019-02-19T17:03:59.711Z,8.22
2019-02-19T17:09:19.907Z,8.25
2019-02-19T17:14:56.699Z,8.23
2019-02-19T17:20:29.351Z,8.12
2019-02-19T17:25:47.940Z,8.01
2019-02-19T17:31:08.261Z,7.76
2019-02-19T17:36:28.523Z,7.60
2019-02-19T17:41:57.606Z,7.51
2019-02-19T17:47:33.104Z,7.54
2019-02-19T17:53:05.669Z,7.54
2019-02-19T17:58:25.858Z,7.57
2019-02-19T18:03:46.126Z,7.48
2019-02-19T18:09:23.690Z,7.30
2019-02-19T18:14:55.650Z,7.13
2019-02-19T18:20:14.394Z,7.01
2019-02-19T18:25:33.175Z,6.96
2019-02-19T18:30:51.804Z,7.01
2019-02-19T18:36:10.356Z,7.05
2019-02-19T18:41:28.980Z,7.20
2019-02-19T18:46:47.557Z,7.06
2019-02-19T18:52:06.187Z,6.91
2019-02-19T18:57:24.776Z,6.67
2019-02-19T19:02:43.398Z,6.68
2019-02-19T19:08:01.890Z,6.57
2019-02-19T19:13:20.492Z,6.59
2019-02-19T19:18:39.198Z,6.66
2019-02-19T19:23:58.144Z,6.51
2019-02-19T19:29:17.000Z,6.47
2019-02-19T19:34:35.685Z,6.45
2019-02-19T19:39:54.204Z,6.44
2019-02-19T19:45:13.146Z,6.54
2019-02-19T19:50:31.652Z,6.55
2019-02-19T19:55:50.209Z,6.68
2019-02-19T20:01:09.331Z,6.72
2019-02-19T20:06:29.437Z,6.64
2019-02-19T20:11:48.051Z,6.69
2019-02-19T20:17:06.536Z,6.62
2019-02-19T20:22:25.129Z,6.66
2019-02-19T20:27:43.775Z,6.68
2019-02-19T20:33:02.394Z,6.56
2019-02-19T20:38:21.054Z,6.59
2019-02-19T20:43:39.760Z,6.62
2019-02-19T20:48:58.377Z,6.61
2019-02-19T20:54:17.042Z,6.60
2019-02-19T20:59:35.631Z,6.53
2019-02-19T21:04:54.188Z,6.55
2019-02-19T21:10:17.596Z,6.65
2019-02-19T21:15:42.661Z,6.72
2019-02-19T21:21:02.130Z,6.67
2019-02-19T21:26:20.737Z,6.47
2019-02-19T21:31:40.426Z,6.40
2019-02-19T21:37:04.813Z,6.47
2019-02-19T21:42:24.110Z,6.42
2019-02-19T21:47:42.880Z,6.48
2019-02-19T21:53:01.652Z,6.36
2019-02-19T21:58:20.260Z,6.20
2019-02-19T22:03:39.821Z,6.25
2019-02-19T22:08:58.542Z,6.17
2019-02-19T22:14:17.190Z,5.94
2019-02-19T22:19:35.874Z,5.80
2019-02-19T22:24:56.083Z,5.64
2019-02-19T22:30:14.716Z,5.34
2019-02-19T22:35:36.033Z,5.21
2019-02-19T22:40:55.440Z,5.11
2019-02-19T22:46:15.935Z,4.92
2019-02-19T22:51:34.552Z,4.75
2019-02-19T22:56:53.708Z,4.78
2019-02-19T23:02:14.490Z,4.61
2019-02-19T23:07:33.277Z,4.77
2019-02-19T23:12:52.099Z,4.80
2019-02-19T23:18:10.729Z,4.82
2019-02-19T23:23:29.477Z,4.68
2019-02-19T23:28:48.118Z,4.71
2019-02-19T23:34:06.668Z,4.64
2019-02-19T23:39:25.572Z,4.73
2019-02-19T23:44:44.062Z,4.67
2019-02-19T23:50:02.674Z,4.77
2019-02-19T23:55:21.225Z,4.88
